createdAt,value
2023-03-26T00:01:37.163Z,8.20
2023-03-26T00:04:06.841Z,7.80
2023-03-26T00:06:39.624Z,7.10
2023-03-26T00:09:09.707Z,7.80
2023-03-26T00:11:40.326Z,6.80
2023-03-26T00:14:14.273Z,7.80
2023-03-26T00:16:42.895Z,7.90
2023-03-26T00:19:11.756Z,8.80
2023-03-26T00:21:40.229Z,7.80
2023-03-26T00:24:15.510Z,8.90
2023-03-26T00:26:45.093Z,8.60
2023-03-26T00:29:15.738Z,8.80
2023-03-26T00:31:46.339Z,7.00
2023-03-26T00:34:18.622Z,9.90
2023-03-26T00:36:47.542Z,10.40
2023-03-26T00:39:35.517Z,8.70
2023-03-26T00:42:06.958Z,9.40
2023-03-26T00:44:35.455Z,7.40
2023-03-26T00:47:03.747Z,9.90
2023-03-26T00:49:32.101Z,9.40
2023-03-26T00:52:00.799Z,8.40
2023-03-26T00:54:31.395Z,8.50
2023-03-26T00:56:59.474Z,10.10
2023-03-26T00:59:30.606Z,8.50
2023-03-26T01:01:58.666Z,9.70
2023-03-26T01:04:32.082Z,9.20
2023-03-26T01:07:04.225Z,9.90
2023-03-26T01:09:37.968Z,10.70
2023-03-26T01:12:07.917Z,8.10
2023-03-26T01:14:39.141Z,8.90
2023-03-26T01:17:07.543Z,11.20
2023-03-26T01:20:13.070Z,9.90
2023-03-26T01:23:07.555Z,7.90
2023-03-26T01:25:40.400Z,9.10
2023-03-26T01:28:09.212Z,8.50
2023-03-26T01:31:10.299Z,7.30
2023-03-26T01:34:00.357Z,9.00
2023-03-26T01:36:45.249Z,6.80
2023-03-26T01:39:22.338Z,7.70
2023-03-26T01:41:52.233Z,8.10
2023-03-26T01:44:24.929Z,8.00
2023-03-26T01:46:53.078Z,7.60
2023-03-26T01:49:21.484Z,6.90
2023-03-26T01:51:51.004Z,7.20
2023-03-26T01:54:21.296Z,6.10
2023-03-26T01:57:16.568Z,7.10
2023-03-26T02:00:22.209Z,6.10
2023-03-26T02:02:59.773Z,5.30
2023-03-26T02:05:53.210Z,6.40
2023-03-26T02:08:37.108Z,5.10
2023-03-26T02:11:13.526Z,6.30
2023-03-26T02:13:51.517Z,6.10
2023-03-26T02:16:20.188Z,4.30
2023-03-26T02:18:51.483Z,5.40
2023-03-26T02:21:22.010Z,5.40
2023-03-26T02:23:50.883Z,4.10
2023-03-26T02:26:19.533Z,6.20
2023-03-26T02:29:07.023Z,4.30
2023-03-26T02:31:35.951Z,2.70
2023-03-26T02:34:04.346Z,2.00
2023-03-26T02:36:36.255Z,3.10
2023-03-26T02:39:06.377Z,3.30
2023-03-26T02:41:38.522Z,6.50
2023-03-26T02:44:11.147Z,3.00
2023-03-26T02:46:58.138Z,3.40
2023-03-26T02:49:50.316Z,5.40
2023-03-26T02:52:44.190Z,3.40
2023-03-26T02:55:15.124Z,3.00
2023-03-26T02:57:45.261Z,4.00
2023-03-26T03:00:18.536Z,3.50
2023-03-26T03:02:48.636Z,2.60
2023-03-26T03:05:33.007Z,3.00
2023-03-26T03:08:20.208Z,4.70
2023-03-26T03:11:25.170Z,2.50
2023-03-26T03:13:53.770Z,3.20
2023-03-26T03:16:27.668Z,2.60
2023-03-26T03:18:58.061Z,1.20
2023-03-26T03:21:30.937Z,2.50
2023-03-26T03:24:00.029Z,3.70
2023-03-26T03:26:30.799Z,3.20
2023-03-26T03:29:03.889Z,4.10
2023-03-26T03:31:32.402Z,3.70
2023-03-26T03:34:05.440Z,2.90
2023-03-26T03:36:38.713Z,4.40
2023-03-26T03:39:22.697Z,3.50
2023-03-26T03:41:51.157Z,5.10
2023-03-26T03:44:19.533Z,3.30
2023-03-26T03:46:49.351Z,4.20
2023-03-26T03:49:17.671Z,4.80
2023-03-26T03:51:46.579Z,4.10
2023-03-26T03:54:28.503Z,3.90
2023-03-26T03:57:06.754Z,5.10
2023-03-26T03:59:47.625Z,3.60
2023-03-26T04:02:26.765Z,4.10
2023-03-26T04:04:58.906Z,6.00
2023-03-26T04:07:31.402Z,4.00
2023-03-26T04:10:26.704Z,3.70
2023-03-26T04:13:13.051Z,5.40
2023-03-26T04:15:53.178Z,3.10
2023-03-26T04:18:22.401Z,3.60
2023-03-26T04:20:51.130Z,4.60
2023-03-26T04:23:26.875Z,3.60
2023-03-26T04:26:07.466Z,3.50
2023-03-26T04:28:55.798Z,4.60
2023-03-26T04:31:30.677Z,4.50
2023-03-26T04:34:05.916Z,3.20
2023-03-26T04:36:35.719Z,5.20
2023-03-26T04:39:05.240Z,3.50
2023-03-26T04:42:01.135Z,3.90
2023-03-26T04:44:36.109Z,3.50
2023-03-26T04:47:09.883Z,4.10
2023-03-26T04:49:46.430Z,5.60
2023-03-26T04:52:16.183Z,2.70
2023-03-26T04:55:14.302Z,6.10
2023-03-26T04:57:46.834Z,4.20
2023-03-26T05:00:36.978Z,5.60
2023-03-26T05:03:06.485Z,6.30
2023-03-26T05:05:34.594Z,5.50
2023-03-26T05:08:06.321Z,4.10
2023-03-26T05:10:34.477Z,7.40
2023-03-26T05:13:11.081Z,8.10
2023-03-26T05:15:41.544Z,9.10
2023-03-26T05:18:20.931Z,8.70
2023-03-26T05:20:52.211Z,7.00
2023-03-26T05:23:21.054Z,6.20
2023-03-26T05:25:55.015Z,6.50
2023-03-26T05:28:26.875Z,6.10
2023-03-26T05:30:58.184Z,3.80
2023-03-26T05:33:27.644Z,4.10
2023-03-26T05:36:15.611Z,3.30
2023-03-26T05:38:49.852Z,3.50
2023-03-26T05:41:37.158Z,4.20
2023-03-26T05:44:06.430Z,5.00
2023-03-26T05:46:34.689Z,4.70
2023-03-26T05:49:04.485Z,3.00
2023-03-26T05:51:35.810Z,5.40
2023-03-26T05:54:24.429Z,3.30
2023-03-26T05:57:11.560Z,6.40
2023-03-26T05:59:58.756Z,4.20
2023-03-26T06:02:44.815Z,4.20
2023-03-26T06:05:37.453Z,3.70
2023-03-26T06:08:22.370Z,4.50
2023-03-26T06:11:01.803Z,5.60
2023-03-26T06:13:34.072Z,4.10
2023-03-26T06:16:05.271Z,4.90
2023-03-26T06:18:37.036Z,3.60
2023-03-26T06:21:30.460Z,3.20
2023-03-26T06:24:20.274Z,4.40
2023-03-26T06:27:00.150Z,5.60
2023-03-26T06:29:48.260Z,3.70
2023-03-26T06:32:35.887Z,4.80
2023-03-26T06:35:18.401Z,5.10
2023-03-26T06:37:46.668Z,5.40
2023-03-26T06:40:15.943Z,4.80
2023-03-26T06:43:22.513Z,7.00
2023-03-26T06:46:02.845Z,3.90
2023-03-26T06:48:33.917Z,5.40
2023-03-26T06:51:20.622Z,5.20
2023-03-26T06:54:07.274Z,3.30
2023-03-26T06:57:14.240Z,4.10
2023-03-26T06:59:42.392Z,4.60
2023-03-26T07:02:31.290Z,3.50
2023-03-26T07:05:18.865Z,4.20
2023-03-26T07:08:06.051Z,2.60
2023-03-26T07:10:52.807Z,2.70
2023-03-26T07:13:53.581Z,2.50
2023-03-26T07:16:40.982Z,3.30
2023-03-26T07:19:15.114Z,4.10
2023-03-26T07:21:44.085Z,2.70
2023-03-26T07:24:25.891Z,1.80
2023-03-26T07:27:18.735Z,2.60
2023-03-26T07:29:53.102Z,1.60
2023-03-26T07:32:55.471Z,1.80
2023-03-26T07:35:55.770Z,2.70
2023-03-26T07:39:06.531Z,2.00
2023-03-26T07:41:55.068Z,1.90
2023-03-26T07:45:03.564Z,2.30
2023-03-26T07:47:45.343Z,2.00
2023-03-26T07:50:22.150Z,1.50
2023-03-26T07:53:06.267Z,2.10
2023-03-26T07:56:04.709Z,2.70
2023-03-26T07:59:23.863Z,1.70
2023-03-26T08:02:30.726Z,3.30
2023-03-26T08:05:19.907Z,2.00
2023-03-26T08:08:25.850Z,2.20
2023-03-26T08:11:23.706Z,4.50
2023-03-26T08:14:24.742Z,2.90
2023-03-26T08:16:54.348Z,1.60
2023-03-26T08:19:22.481Z,1.70
2023-03-26T08:22:06.243Z,2.30
2023-03-26T08:24:40.390Z,2.60
2023-03-26T08:27:27.790Z,2.30
2023-03-26T08:30:09.125Z,3.00
2023-03-26T08:32:38.720Z,5.00
2023-03-26T08:35:07.264Z,3.20
2023-03-26T08:37:35.364Z,1.90
2023-03-26T08:40:03.831Z,2.20
2023-03-26T08:43:00.522Z,1.90
2023-03-26T08:45:58.019Z,2.70
2023-03-26T08:49:03.495Z,1.20
2023-03-26T08:51:37.290Z,1.70
2023-03-26T08:54:14.793Z,2.50
2023-03-26T08:57:02.035Z,3.30
2023-03-26T09:00:12.456Z,2.10
2023-03-26T09:03:11.949Z,2.20
2023-03-26T09:06:31.373Z,2.40
2023-03-26T09:09:18.814Z,1.80
2023-03-26T09:12:09.260Z,2.60
2023-03-26T09:14:47.965Z,2.20
2023-03-26T09:17:21.310Z,3.10
2023-03-26T09:20:21.090Z,3.40
2023-03-26T09:23:01.331Z,2.70
2023-03-26T09:26:12.657Z,2.90
2023-03-26T09:29:34.025Z,4.70
2023-03-26T09:32:29.700Z,2.60
2023-03-26T09:35:01.854Z,2.20
2023-03-26T09:37:57.586Z,2.80
2023-03-26T09:40:55.733Z,2.50
2023-03-26T09:43:33.375Z,2.30
2023-03-26T09:46:36.987Z,3.00
2023-03-26T09:49:27.209Z,2.60
2023-03-26T09:51:57.143Z,2.60
2023-03-26T09:54:44.460Z,3.50
2023-03-26T09:57:33.161Z,2.70
2023-03-26T10:00:07.760Z,2.60
2023-03-26T10:02:54.307Z,5.50
2023-03-26T10:05:34.489Z,2.90
2023-03-26T10:08:32.194Z,2.40
2023-03-26T10:11:12.952Z,5.20
2023-03-26T10:13:56.366Z,2.50
2023-03-26T10:16:39.626Z,2.80
2023-03-26T10:20:02.172Z,2.70
2023-03-26T10:22:38.736Z,2.30
2023-03-26T10:25:12.851Z,3.20
2023-03-26T10:28:02.871Z,3.10
2023-03-26T10:30:39.959Z,2.90
2023-03-26T10:33:22.099Z,3.30
2023-03-26T10:36:10.312Z,3.20
2023-03-26T10:38:57.151Z,3.40
2023-03-26T10:41:43.388Z,2.30
2023-03-26T10:44:36.092Z,3.70
2023-03-26T10:47:13.530Z,2.40
2023-03-26T10:49:49.325Z,2.50
2023-03-26T10:52:32.115Z,3.70
2023-03-26T10:55:20.326Z,2.50
2023-03-26T10:57:54.743Z,2.30
2023-03-26T11:00:27.371Z,3.00
2023-03-26T11:03:16.712Z,3.00
2023-03-26T11:05:56.622Z,2.20
2023-03-26T11:08:47.399Z,5.20
2023-03-26T11:11:38.759Z,2.80
2023-03-26T11:14:24.402Z,2.90
2023-03-26T11:17:40.825Z,4.00
2023-03-26T11:20:10.089Z,2.30
2023-03-26T11:22:50.580Z,3.40
2023-03-26T11:25:56.042Z,2.30
2023-03-26T11:29:03.686Z,3.40
2023-03-26T11:31:58.583Z,3.90
2023-03-26T11:34:40.561Z,2.20
2023-03-26T11:37:15.971Z,3.30
2023-03-26T11:39:53.477Z,2.20
2023-03-26T11:42:26.966Z,1.60
2023-03-26T11:45:04.183Z,2.10
2023-03-26T11:48:04.776Z,2.60
2023-03-26T11:50:33.265Z,1.10
2023-03-26T11:53:21.786Z,1.10
2023-03-26T11:56:01.388Z,1.00
2023-03-26T11:59:11.382Z,1.10
2023-03-26T12:01:50.679Z,1.10
2023-03-26T12:04:21.151Z,1.00
2023-03-26T12:06:56.708Z,1.80
2023-03-26T12:09:27.149Z,1.10
2023-03-26T12:12:00.546Z,1.80
2023-03-26T12:14:32.789Z,1.90
2023-03-26T12:17:08.271Z,1.10
2023-03-26T12:19:39.829Z,1.40
2023-03-26T12:22:29.952Z,2.00
2023-03-26T12:25:22.357Z,2.20
2023-03-26T12:28:04.149Z,2.70
2023-03-26T12:30:38.146Z,2.70
2023-03-26T12:33:08.904Z,2.70
2023-03-26T12:35:37.039Z,3.30
2023-03-26T12:38:25.112Z,2.10
2023-03-26T12:44:44.404Z,5.70
2023-03-26T12:44:58.885Z,2.10
2023-03-26T12:47:56.484Z,2.00
2023-03-26T12:50:34.514Z,1.50
2023-03-26T12:53:18.125Z,3.10
2023-03-26T12:56:04.053Z,2.30
2023-03-26T12:58:38.353Z,4.30
2023-03-26T13:01:09.308Z,2.30
2023-03-26T13:03:52.941Z,3.20
2023-03-26T13:06:31.660Z,2.30
2023-03-26T13:09:51.734Z,2.10
2023-03-26T13:13:05.391Z,3.00
2023-03-26T13:15:35.458Z,1.20
2023-03-26T13:18:25.312Z,1.60
2023-03-26T13:20:59.195Z,1.60
2023-03-26T13:24:07.875Z,1.40
2023-03-26T13:27:31.560Z,2.80
2023-03-26T13:30:03.561Z,3.00
2023-03-26T13:32:40.562Z,1.70
2023-03-26T13:35:33.992Z,1.90
2023-03-26T13:38:10.565Z,1.60
2023-03-26T13:41:03.430Z,2.30
2023-03-26T13:43:39.335Z,2.80
2023-03-26T13:46:13.404Z,1.90
2023-03-26T13:48:48.161Z,3.20
2023-03-26T13:51:27.315Z,1.30
2023-03-26T13:54:06.351Z,2.00
2023-03-26T13:56:37.367Z,3.50
2023-03-26T13:59:32.656Z,2.80
2023-03-26T14:02:04.478Z,4.70
2023-03-26T14:04:39.137Z,2.80
2023-03-26T14:07:18.196Z,2.70
2023-03-26T14:10:02.000Z,2.30
2023-03-26T14:12:45.861Z,2.40
2023-03-26T14:15:27.797Z,1.80
2023-03-26T14:18:06.748Z,1.60
2023-03-26T14:21:02.054Z,5.40
2023-03-26T14:23:43.917Z,2.80
2023-03-26T14:26:37.389Z,2.30
2023-03-26T14:29:24.336Z,3.50
2023-03-26T14:32:00.558Z,4.00
2023-03-26T14:34:45.867Z,2.60
2023-03-26T14:37:41.590Z,2.90
2023-03-26T14:40:30.077Z,2.70
2023-03-26T14:43:01.042Z,2.90
2023-03-26T14:45:39.078Z,2.20
2023-03-26T14:48:27.056Z,2.20
2023-03-26T14:51:09.943Z,3.10
2023-03-26T14:53:47.287Z,2.80
2023-03-26T14:56:55.697Z,2.20
2023-03-26T14:59:53.829Z,3.40
2023-03-26T15:02:59.575Z,3.90
2023-03-26T15:05:46.776Z,3.20
2023-03-26T15:08:34.457Z,2.50
2023-03-26T15:11:17.712Z,2.60
2023-03-26T15:14:23.619Z,2.00
2023-03-26T15:17:29.857Z,3.90
2023-03-26T15:20:07.315Z,2.30
2023-03-26T15:22:38.882Z,4.20
2023-03-26T15:25:44.341Z,4.10
2023-03-26T15:28:37.170Z,1.80
2023-03-26T15:31:37.014Z,2.50
2023-03-26T15:34:20.185Z,2.20
2023-03-26T15:37:03.584Z,3.70
2023-03-26T15:39:59.379Z,3.10
2023-03-26T15:42:29.858Z,4.20
2023-03-26T15:45:17.696Z,6.00
2023-03-26T15:48:02.588Z,5.20
2023-03-26T15:51:04.236Z,3.40
2023-03-26T15:53:33.854Z,4.70
2023-03-26T15:56:15.514Z,2.40
2023-03-26T15:58:50.225Z,5.60
2023-03-26T16:01:34.086Z,2.90
2023-03-26T16:04:18.484Z,3.10
2023-03-26T16:06:58.961Z,2.30
2023-03-26T16:09:47.619Z,3.60
2023-03-26T16:12:16.162Z,2.50
2023-03-26T16:15:06.078Z,4.00
2023-03-26T16:18:21.324Z,3.80
2023-03-26T16:20:53.555Z,3.40
2023-03-26T16:23:47.715Z,3.60
2023-03-26T16:26:22.631Z,4.40
2023-03-26T16:29:04.115Z,2.90
2023-03-26T16:31:39.391Z,2.10
2023-03-26T16:34:19.261Z,3.20
2023-03-26T16:36:51.836Z,2.80
2023-03-26T16:39:23.651Z,2.40
2023-03-26T16:42:06.557Z,2.20
2023-03-26T16:44:50.140Z,3.70
2023-03-26T16:47:39.094Z,4.80
2023-03-26T16:50:19.853Z,5.10
2023-03-26T16:52:55.923Z,4.80
2023-03-26T16:55:44.372Z,4.90
2023-03-26T16:58:43.264Z,5.30
2023-03-26T17:01:29.740Z,4.90
2023-03-26T17:04:25.162Z,5.40
2023-03-26T17:07:13.321Z,3.50
2023-03-26T17:10:20.291Z,4.30
2023-03-26T17:16:33.979Z,5.00
2023-03-26T17:20:43.927Z,5.50
2023-03-26T17:23:41.522Z,5.90
2023-03-26T17:26:28.744Z,7.40
2023-03-26T17:29:30.018Z,9.60
2023-03-26T17:32:12.770Z,7.90
2023-03-26T17:34:52.566Z,8.30
2023-03-26T17:37:24.153Z,8.70
2023-03-26T17:40:01.737Z,7.60
2023-03-26T17:42:37.712Z,6.60
2023-03-26T17:45:17.950Z,6.30
2023-03-26T17:48:15.542Z,8.90
2023-03-26T17:50:53.915Z,7.10
2023-03-26T17:53:28.328Z,8.80
2023-03-26T17:55:58.522Z,7.70
2023-03-26T17:58:30.703Z,8.50
2023-03-26T18:01:12.746Z,8.60
2023-03-26T18:04:00.755Z,6.40
2023-03-26T18:06:32.705Z,7.90
2023-03-26T18:09:22.907Z,8.00
2023-03-26T18:11:54.024Z,9.00
2023-03-26T18:14:32.034Z,6.60
2023-03-26T18:17:00.793Z,6.70
2023-03-26T18:19:29.453Z,8.70
2023-03-26T18:21:59.075Z,7.60
2023-03-26T18:24:48.145Z,6.70
2023-03-26T18:27:21.078Z,8.00
2023-03-26T18:30:01.939Z,5.80
2023-03-26T18:32:36.151Z,7.80
2023-03-26T18:35:19.041Z,5.90
2023-03-26T18:37:49.256Z,7.50
2023-03-26T18:40:22.851Z,8.30
2023-03-26T18:42:58.311Z,8.20
2023-03-26T18:45:34.879Z,9.10
2023-03-26T18:48:06.490Z,6.90
2023-03-26T18:50:37.205Z,7.20
2023-03-26T18:53:24.958Z,7.00
2023-03-26T18:55:53.483Z,6.10
2023-03-26T18:58:23.815Z,5.40
2023-03-26T19:01:00.443Z,4.70
2023-03-26T19:03:32.409Z,7.00
2023-03-26T19:06:07.396Z,4.10
2023-03-26T19:08:35.834Z,3.00
2023-03-26T19:11:05.034Z,7.40
2023-03-26T19:13:33.974Z,4.80
2023-03-26T19:16:34.308Z,5.10
2023-03-26T19:19:05.229Z,3.80
2023-03-26T19:21:35.377Z,4.50
2023-03-26T19:24:04.475Z,6.80
2023-03-26T19:26:32.686Z,9.00
2023-03-26T19:29:01.335Z,13.40
2023-03-26T19:31:34.865Z,8.60
2023-03-26T19:34:14.032Z,8.50
2023-03-26T19:37:25.496Z,8.50
2023-03-26T19:40:14.722Z,4.80
2023-03-26T19:42:44.768Z,5.10
2023-03-26T19:45:16.764Z,3.70
2023-03-26T19:47:52.101Z,2.80
2023-03-26T19:50:42.642Z,3.80
2023-03-26T19:53:16.594Z,6.10
2023-03-26T19:55:57.547Z,5.80
2023-03-26T19:58:26.814Z,7.30
2023-03-26T20:00:56.650Z,10.60
2023-03-26T20:03:40.369Z,8.80
2023-03-26T20:06:15.872Z,15.10
2023-03-26T20:08:51.563Z,14.70
2023-03-26T20:11:23.180Z,20.40
2023-03-26T20:13:52.767Z,10.60
2023-03-26T20:16:27.224Z,13.30
2023-03-26T20:19:05.178Z,9.90
2023-03-26T20:21:38.328Z,13.30
2023-03-26T20:24:15.151Z,12.20
2023-03-26T20:26:44.234Z,25.20
2023-03-26T20:29:13.503Z,17.90
2023-03-26T20:31:42.395Z,17.50
2023-03-26T20:34:24.012Z,11.20
2023-03-26T20:36:55.706Z,11.40
2023-03-26T20:39:24.267Z,16.10
2023-03-26T20:41:53.611Z,7.90
2023-03-26T20:44:35.668Z,11.60
2023-03-26T20:47:15.866Z,8.50
2023-03-26T20:49:47.670Z,14.90
2023-03-26T20:52:18.876Z,11.50
2023-03-26T20:54:47.171Z,15.70
2023-03-26T20:57:15.809Z,9.10
2023-03-26T20:59:44.170Z,8.00
2023-03-26T21:02:12.495Z,10.60
2023-03-26T21:04:41.646Z,8.10
2023-03-26T21:07:17.654Z,11.20
2023-03-26T21:09:49.118Z,11.20
2023-03-26T21:12:26.805Z,9.50
2023-03-26T21:14:56.109Z,12.70
2023-03-26T21:17:24.845Z,16.50
2023-03-26T21:19:53.544Z,16.80
2023-03-26T21:22:37.313Z,12.80
2023-03-26T21:25:15.631Z,15.40
2023-03-26T21:28:09.000Z,16.70
2023-03-26T21:30:38.051Z,12.70
2023-03-26T21:33:06.735Z,16.10
2023-03-26T21:35:35.244Z,14.00
2023-03-26T21:38:04.667Z,14.80
2023-03-26T21:40:33.409Z,18.10
2023-03-26T21:43:02.326Z,17.50
2023-03-26T21:45:31.440Z,13.40
2023-03-26T21:48:01.444Z,14.60
2023-03-26T21:50:30.427Z,19.60
2023-03-26T21:53:00.887Z,21.70
2023-03-26T21:55:30.397Z,25.90
2023-03-26T21:58:12.444Z,23.90
2023-03-26T22:01:09.953Z,26.50
2023-03-26T22:36:22.023Z,19.50
2023-03-26T22:43:08.712Z,18.30
2023-03-26T22:45:38.272Z,17.40
2023-03-26T22:48:06.457Z,21.70
2023-03-26T22:50:34.989Z,18.50
2023-03-26T22:53:03.045Z,19.10
2023-03-26T22:55:31.079Z,19.40
2023-03-26T22:57:59.290Z,16.60
2023-03-26T23:00:27.486Z,21.00
2023-03-26T23:03:00.497Z,13.80
2023-03-26T23:05:29.545Z,16.00
2023-03-26T23:07:58.264Z,18.30
2023-03-26T23:10:26.384Z,14.50
2023-03-26T23:12:54.485Z,17.20
2023-03-26T23:15:22.598Z,15.90
2023-03-26T23:17:54.347Z,14.80
2023-03-26T23:20:23.036Z,15.30
2023-03-26T23:22:51.418Z,13.60
2023-03-26T23:25:20.191Z,12.80
2023-03-26T23:27:48.927Z,12.70
2023-03-26T23:30:17.041Z,19.60
2023-03-26T23:32:45.159Z,14.10
2023-03-26T23:35:13.142Z,14.70
2023-03-26T23:37:42.736Z,13.00
2023-03-26T23:40:12.867Z,12.80
2023-03-26T23:42:40.982Z,14.90
2023-03-26T23:45:09.353Z,12.20
2023-03-26T23:47:42.529Z,15.60
2023-03-26T23:50:11.230Z,10.00
2023-03-26T23:52:39.292Z,19.00
2023-03-26T23:55:08.252Z,8.60
2023-03-26T23:57:37.218Z,10.50
